sensor_id;sensor_type;location;lat;lon;timestamp;P1;durP1;ratioP1;P2;durP2;ratioP2
34673;SDS011;20879;55.668;37.858;2022-07-30T00:00:37;1.45;;;1.00;;
34673;SDS011;20879;55.668;37.858;2022-07-30T00:03:08;1.90;;;1.20;;
34673;SDS011;20879;55.668;37.858;2022-07-30T00:05:39;3.28;;;1.10;;
34673;SDS011;20879;55.668;37.858;2022-07-30T00:08:09;2.33;;;1.25;;
34673;SDS011;20879;55.668;37.858;2022-07-30T00:10:39;2.28;;;1.20;;
34673;SDS011;20879;55.668;37.858;2022-07-30T00:13:11;1.98;;;1.25;;
34673;SDS011;20879;55.668;37.858;2022-07-30T00:15:40;3.63;;;1.20;;
34673;SDS011;20879;55.668;37.858;2022-07-30T00:18:12;10.70;;;1.30;;
34673;SDS011;20879;55.668;37.858;2022-07-30T00:20:42;1.20;;;1.10;;
34673;SDS011;20879;55.668;37.858;2022-07-30T00:23:12;4.22;;;1.35;;
34673;SDS011;20879;55.668;37.858;2022-07-30T00:25:41;1.83;;;1.40;;
34673;SDS011;20879;55.668;37.858;2022-07-30T00:28:10;1.35;;;1.00;;
34673;SDS011;20879;55.668;37.858;2022-07-30T00:30:40;3.40;;;1.85;;
34673;SDS011;20879;55.668;37.858;2022-07-30T00:33:11;2.70;;;1.50;;
34673;SDS011;20879;55.668;37.858;2022-07-30T00:35:40;1.50;;;1.40;;
34673;SDS011;20879;55.668;37.858;2022-07-30T00:38:11;4.75;;;1.42;;
34673;SDS011;20879;55.668;37.858;2022-07-30T00:40:41;2.00;;;1.20;;
34673;SDS011;20879;55.668;37.858;2022-07-30T00:43:13;3.92;;;1.35;;
34673;SDS011;20879;55.668;37.858;2022-07-30T00:45:43;3.65;;;1.27;;
34673;SDS011;20879;55.668;37.858;2022-07-30T00:48:15;4.18;;;1.45;;
34673;SDS011;20879;55.668;37.858;2022-07-30T00:50:44;2.58;;;1.10;;
34673;SDS011;20879;55.668;37.858;2022-07-30T00:53:14;1.80;;;1.10;;
34673;SDS011;20879;55.668;37.858;2022-07-30T00:55:43;2.78;;;1.25;;
34673;SDS011;20879;55.668;37.858;2022-07-30T00:58:12;2.53;;;1.35;;
34673;SDS011;20879;55.668;37.858;2022-07-30T01:00:42;2.80;;;1.25;;
34673;SDS011;20879;55.668;37.858;2022-07-30T01:03:11;3.40;;;1.25;;
34673;SDS011;20879;55.668;37.858;2022-07-30T01:05:42;2.65;;;1.33;;
34673;SDS011;20879;55.668;37.858;2022-07-30T01:08:12;2.67;;;1.42;;
34673;SDS011;20879;55.668;37.858;2022-07-30T01:10:43;5.95;;;1.52;;
34673;SDS011;20879;55.668;37.858;2022-07-30T01:13:12;2.03;;;1.20;;
34673;SDS011;20879;55.668;37.858;2022-07-30T01:15:42;2.75;;;1.30;;
34673;SDS011;20879;55.668;37.858;2022-07-30T01:18:11;1.33;;;1.00;;
34673;SDS011;20879;55.668;37.858;2022-07-30T01:23:17;1.75;;;1.17;;
34673;SDS011;20879;55.668;37.858;2022-07-30T01:25:56;1.55;;;1.15;;
34673;SDS011;20879;55.668;37.858;2022-07-30T01:28:31;3.10;;;1.38;;
34673;SDS011;20879;55.668;37.858;2022-07-30T01:31:05;2.67;;;1.10;;
34673;SDS011;20879;55.668;37.858;2022-07-30T01:33:39;1.30;;;1.20;;
34673;SDS011;20879;55.668;37.858;2022-07-30T01:36:13;4.68;;;1.30;;
34673;SDS011;20879;55.668;37.858;2022-07-30T01:38:46;1.35;;;1.10;;
34673;SDS011;20879;55.668;37.858;2022-07-30T01:41:20;1.95;;;1.15;;
34673;SDS011;20879;55.668;37.858;2022-07-30T01:43:51;1.77;;;1.33;;
34673;SDS011;20879;55.668;37.858;2022-07-30T01:46:22;2.40;;;1.50;;
34673;SDS011;20879;55.668;37.858;2022-07-30T01:48:53;3.10;;;1.27;;
34673;SDS011;20879;55.668;37.858;2022-07-30T01:51:29;2.97;;;1.52;;
34673;SDS011;20879;55.668;37.858;2022-07-30T01:54:04;4.75;;;1.70;;
34673;SDS011;20879;55.668;37.858;2022-07-30T01:56:38;4.07;;;1.45;;
34673;SDS011;20879;55.668;37.858;2022-07-30T01:59:11;1.77;;;1.30;;
34673;SDS011;20879;55.668;37.858;2022-07-30T02:01:47;3.90;;;1.48;;
34673;SDS011;20879;55.668;37.858;2022-07-30T02:04:17;5.13;;;1.55;;
34673;SDS011;20879;55.668;37.858;2022-07-30T02:06:50;4.78;;;1.52;;
34673;SDS011;20879;55.668;37.858;2022-07-30T02:09:27;3.55;;;1.60;;
34673;SDS011;20879;55.668;37.858;2022-07-30T02:12:10;5.90;;;1.70;;
34673;SDS011;20879;55.668;37.858;2022-07-30T02:15:09;3.72;;;1.45;;
34673;SDS011;20879;55.668;37.858;2022-07-30T02:17:43;4.05;;;1.52;;
34673;SDS011;20879;55.668;37.858;2022-07-30T02:20:26;6.18;;;1.67;;
34673;SDS011;20879;55.668;37.858;2022-07-30T02:23:00;6.00;;;1.70;;
34673;SDS011;20879;55.668;37.858;2022-07-30T02:25:31;8.88;;;1.75;;
34673;SDS011;20879;55.668;37.858;2022-07-30T02:28:07;4.63;;;1.48;;
34673;SDS011;20879;55.668;37.858;2022-07-30T02:30:41;3.38;;;1.42;;
34673;SDS011;20879;55.668;37.858;2022-07-30T02:33:14;3.00;;;1.50;;
34673;SDS011;20879;55.668;37.858;2022-07-30T02:35:51;3.63;;;1.40;;
34673;SDS011;20879;55.668;37.858;2022-07-30T02:38:22;4.13;;;1.50;;
34673;SDS011;20879;55.668;37.858;2022-07-30T02:40:54;2.42;;;1.50;;
34673;SDS011;20879;55.668;37.858;2022-07-30T02:43:29;3.97;;;1.50;;
34673;SDS011;20879;55.668;37.858;2022-07-30T02:46:03;5.35;;;1.70;;
34673;SDS011;20879;55.668;37.858;2022-07-30T02:48:53;2.83;;;1.20;;
34673;SDS011;20879;55.668;37.858;2022-07-30T02:53:55;2.58;;;1.55;;
34673;SDS011;20879;55.668;37.858;2022-07-30T02:56:26;2.78;;;1.50;;
34673;SDS011;20879;55.668;37.858;2022-07-30T02:58:58;8.68;;;1.63;;
34673;SDS011;20879;55.668;37.858;2022-07-30T03:01:31;2.45;;;1.55;;
34673;SDS011;20879;55.668;37.858;2022-07-30T03:04:01;7.97;;;1.50;;
34673;SDS011;20879;55.668;37.858;2022-07-30T03:06:32;3.03;;;1.60;;
34673;SDS011;20879;55.668;37.858;2022-07-30T03:09:03;3.53;;;1.42;;
34673;SDS011;20879;55.668;37.858;2022-07-30T03:11:34;4.67;;;1.63;;
34673;SDS011;20879;55.668;37.858;2022-07-30T03:14:06;3.65;;;1.73;;
34673;SDS011;20879;55.668;37.858;2022-07-30T03:16:36;3.05;;;1.65;;
34673;SDS011;20879;55.668;37.858;2022-07-30T03:19:09;4.53;;;1.73;;
34673;SDS011;20879;55.668;37.858;2022-07-30T03:21:40;1.92;;;1.33;;
34673;SDS011;20879;55.668;37.858;2022-07-30T03:24:10;2.53;;;1.48;;
34673;SDS011;20879;55.668;37.858;2022-07-30T03:26:41;4.32;;;1.73;;
34673;SDS011;20879;55.668;37.858;2022-07-30T03:29:14;2.30;;;1.70;;
34673;SDS011;20879;55.668;37.858;2022-07-30T03:31:47;3.15;;;1.50;;
34673;SDS011;20879;55.668;37.858;2022-07-30T03:34:20;5.07;;;1.63;;
34673;SDS011;20879;55.668;37.858;2022-07-30T03:36:50;2.55;;;1.48;;
34673;SDS011;20879;55.668;37.858;2022-07-30T03:39:20;5.15;;;1.58;;
34673;SDS011;20879;55.668;37.858;2022-07-30T03:41:50;4.95;;;1.30;;
34673;SDS011;20879;55.668;37.858;2022-07-30T03:44:25;2.10;;;1.20;;
34673;SDS011;20879;55.668;37.858;2022-07-30T03:46:58;2.58;;;1.60;;
34673;SDS011;20879;55.668;37.858;2022-07-30T03:49:32;2.00;;;1.20;;
34673;SDS011;20879;55.668;37.858;2022-07-30T03:52:04;5.40;;;1.70;;
34673;SDS011;20879;55.668;37.858;2022-07-30T03:54:34;2.90;;;1.20;;
34673;SDS011;20879;55.668;37.858;2022-07-30T03:57:22;4.13;;;1.30;;
34673;SDS011;20879;55.668;37.858;2022-07-30T03:59:56;4.22;;;1.33;;
34673;SDS011;20879;55.668;37.858;2022-07-30T04:02:26;3.97;;;1.50;;
34673;SDS011;20879;55.668;37.858;2022-07-30T04:05:21;2.40;;;1.38;;
34673;SDS011;20879;55.668;37.858;2022-07-30T04:07:52;3.13;;;1.58;;
34673;SDS011;20879;55.668;37.858;2022-07-30T04:10:22;6.25;;;1.40;;
34673;SDS011;20879;55.668;37.858;2022-07-30T04:12:57;2.65;;;1.40;;
34673;SDS011;20879;55.668;37.858;2022-07-30T04:15:31;2.85;;;1.55;;
34673;SDS011;20879;55.668;37.858;2022-07-30T04:18:27;2.92;;;1.38;;
34673;SDS011;20879;55.668;37.858;2022-07-30T04:21:02;2.25;;;1.65;;
34673;SDS011;20879;55.668;37.858;2022-07-30T04:23:44;3.50;;;1.30;;
34673;SDS011;20879;55.668;37.858;2022-07-30T04:26:33;2.63;;;1.50;;
34673;SDS011;20879;55.668;37.858;2022-07-30T04:29:04;2.42;;;1.52;;
34673;SDS011;20879;55.668;37.858;2022-07-30T04:31:42;4.45;;;1.50;;
34673;SDS011;20879;55.668;37.858;2022-07-30T04:34:44;2.65;;;1.40;;
34673;SDS011;20879;55.668;37.858;2022-07-30T04:37:18;5.30;;;1.80;;
34673;SDS011;20879;55.668;37.858;2022-07-30T04:39:50;4.93;;;1.50;;
34673;SDS011;20879;55.668;37.858;2022-07-30T04:45:08;3.03;;;1.40;;
34673;SDS011;20879;55.668;37.858;2022-07-30T04:47:49;1.77;;;1.52;;
34673;SDS011;20879;55.668;37.858;2022-07-30T04:53:12;4.60;;;1.23;;
34673;SDS011;20879;55.668;37.858;2022-07-30T04:55:50;2.15;;;1.35;;
34673;SDS011;20879;55.668;37.858;2022-07-30T04:58:25;4.03;;;1.27;;
34673;SDS011;20879;55.668;37.858;2022-07-30T05:00:56;2.40;;;1.70;;
34673;SDS011;20879;55.668;37.858;2022-07-30T05:03:31;5.05;;;1.50;;
34673;SDS011;20879;55.668;37.858;2022-07-30T05:06:03;5.07;;;1.75;;
34673;SDS011;20879;55.668;37.858;2022-07-30T05:08:37;3.17;;;1.33;;
34673;SDS011;20879;55.668;37.858;2022-07-30T05:11:10;2.60;;;1.38;;
34673;SDS011;20879;55.668;37.858;2022-07-30T05:13:40;1.83;;;1.10;;
34673;SDS011;20879;55.668;37.858;2022-07-30T05:16:13;3.25;;;1.25;;
34673;SDS011;20879;55.668;37.858;2022-07-30T05:18:45;3.72;;;1.67;;
34673;SDS011;20879;55.668;37.858;2022-07-30T05:21:15;2.00;;;1.48;;
34673;SDS011;20879;55.668;37.858;2022-07-30T05:23:47;1.83;;;1.42;;
34673;SDS011;20879;55.668;37.858;2022-07-30T05:26:28;9.60;;;2.00;;
34673;SDS011;20879;55.668;37.858;2022-07-30T05:28:58;2.30;;;1.25;;
34673;SDS011;20879;55.668;37.858;2022-07-30T05:31:46;3.40;;;1.13;;
34673;SDS011;20879;55.668;37.858;2022-07-30T05:34:19;2.55;;;1.20;;
34673;SDS011;20879;55.668;37.858;2022-07-30T05:36:50;2.60;;;1.20;;
34673;SDS011;20879;55.668;37.858;2022-07-30T05:39:20;1.92;;;1.40;;
34673;SDS011;20879;55.668;37.858;2022-07-30T05:42:08;2.63;;;1.10;;
34673;SDS011;20879;55.668;37.858;2022-07-30T05:44:45;2.25;;;1.00;;
34673;SDS011;20879;55.668;37.858;2022-07-30T05:47:15;2.45;;;1.30;;
34673;SDS011;20879;55.668;37.858;2022-07-30T05:49:50;1.50;;;1.08;;
34673;SDS011;20879;55.668;37.858;2022-07-30T05:52:21;3.08;;;1.35;;
34673;SDS011;20879;55.668;37.858;2022-07-30T05:54:55;1.23;;;1.05;;
34673;SDS011;20879;55.668;37.858;2022-07-30T05:57:49;3.10;;;1.02;;
34673;SDS011;20879;55.668;37.858;2022-07-30T06:00:19;2.67;;;1.10;;
34673;SDS011;20879;55.668;37.858;2022-07-30T06:02:51;3.20;;;1.38;;
34673;SDS011;20879;55.668;37.858;2022-07-30T06:05:43;3.28;;;1.00;;
34673;SDS011;20879;55.668;37.858;2022-07-30T06:08:12;1.88;;;1.10;;
34673;SDS011;20879;55.668;37.858;2022-07-30T06:10:41;2.38;;;1.02;;
34673;SDS011;20879;55.668;37.858;2022-07-30T06:13:11;1.85;;;1.13;;
34673;SDS011;20879;55.668;37.858;2022-07-30T06:15:40;1.77;;;1.15;;
34673;SDS011;20879;55.668;37.858;2022-07-30T06:18:10;5.78;;;1.20;;
34673;SDS011;20879;55.668;37.858;2022-07-30T06:20:47;4.70;;;1.02;;
34673;SDS011;20879;55.668;37.858;2022-07-30T06:23:36;3.83;;;1.30;;
34673;SDS011;20879;55.668;37.858;2022-07-30T06:26:16;4.80;;;0.90;;
34673;SDS011;20879;55.668;37.858;2022-07-30T06:28:46;4.55;;;1.60;;
34673;SDS011;20879;55.668;37.858;2022-07-30T06:31:21;2.70;;;1.25;;
34673;SDS011;20879;55.668;37.858;2022-07-30T06:33:51;2.92;;;1.15;;
34673;SDS011;20879;55.668;37.858;2022-07-30T06:36:23;3.85;;;1.15;;
34673;SDS011;20879;55.668;37.858;2022-07-30T06:39:01;2.08;;;1.30;;
34673;SDS011;20879;55.668;37.858;2022-07-30T06:41:53;1.75;;;0.90;;
34673;SDS011;20879;55.668;37.858;2022-07-30T06:44:27;2.25;;;0.90;;
34673;SDS011;20879;55.668;37.858;2022-07-30T06:47:18;1.42;;;0.73;;
34673;SDS011;20879;55.668;37.858;2022-07-30T06:49:51;2.40;;;0.80;;
34673;SDS011;20879;55.668;37.858;2022-07-30T06:52:25;1.48;;;0.90;;
34673;SDS011;20879;55.668;37.858;2022-07-30T06:54:55;2.40;;;0.90;;
34673;SDS011;20879;55.668;37.858;2022-07-30T06:57:44;2.42;;;1.10;;
34673;SDS011;20879;55.668;37.858;2022-07-30T07:00:45;2.70;;;0.67;;
34673;SDS011;20879;55.668;37.858;2022-07-30T07:03:15;2.30;;;0.70;;
34673;SDS011;20879;55.668;37.858;2022-07-30T07:05:46;1.05;;;0.73;;
34673;SDS011;20879;55.668;37.858;2022-07-30T07:08:17;5.00;;;1.02;;
34673;SDS011;20879;55.668;37.858;2022-07-30T07:10:53;1.35;;;0.80;;
34673;SDS011;20879;55.668;37.858;2022-07-30T07:13:29;2.65;;;0.80;;
34673;SDS011;20879;55.668;37.858;2022-07-30T07:16:01;2.78;;;0.73;;
34673;SDS011;20879;55.668;37.858;2022-07-30T07:18:30;2.80;;;0.82;;
34673;SDS011;20879;55.668;37.858;2022-07-30T07:21:04;2.15;;;0.98;;
34673;SDS011;20879;55.668;37.858;2022-07-30T07:23:37;1.45;;;0.63;;
34673;SDS011;20879;55.668;37.858;2022-07-30T07:26:28;2.38;;;0.98;;
34673;SDS011;20879;55.668;37.858;2022-07-30T07:28:58;3.93;;;0.87;;
34673;SDS011;20879;55.668;37.858;2022-07-30T07:31:32;0.98;;;0.77;;
34673;SDS011;20879;55.668;37.858;2022-07-30T07:34:22;2.90;;;0.90;;
34673;SDS011;20879;55.668;37.858;2022-07-30T07:36:51;2.95;;;0.90;;
34673;SDS011;20879;55.668;37.858;2022-07-30T07:39:24;0.98;;;0.70;;
34673;SDS011;20879;55.668;37.858;2022-07-30T07:41:54;1.50;;;0.77;;
34673;SDS011;20879;55.668;37.858;2022-07-30T07:44:26;1.52;;;0.73;;
34673;SDS011;20879;55.668;37.858;2022-07-30T07:46:56;2.90;;;0.98;;
34673;SDS011;20879;55.668;37.858;2022-07-30T07:49:30;4.53;;;1.00;;
34673;SDS011;20879;55.668;37.858;2022-07-30T07:52:00;2.92;;;1.00;;
34673;SDS011;20879;55.668;37.858;2022-07-30T07:54:33;1.85;;;0.90;;
34673;SDS011;20879;55.668;37.858;2022-07-30T07:57:05;4.60;;;0.90;;
34673;SDS011;20879;55.668;37.858;2022-07-30T07:59:41;3.85;;;0.90;;
34673;SDS011;20879;55.668;37.858;2022-07-30T08:02:16;1.58;;;1.00;;
34673;SDS011;20879;55.668;37.858;2022-07-30T08:04:56;6.70;;;0.90;;
34673;SDS011;20879;55.668;37.858;2022-07-30T08:07:35;4.30;;;0.98;;
34673;SDS011;20879;55.668;37.858;2022-07-30T08:10:32;2.80;;;0.77;;
34673;SDS011;20879;55.668;37.858;2022-07-30T08:13:20;2.83;;;0.77;;
34673;SDS011;20879;55.668;37.858;2022-07-30T08:16:28;1.83;;;0.80;;
34673;SDS011;20879;55.668;37.858;2022-07-30T08:19:06;3.13;;;0.90;;
34673;SDS011;20879;55.668;37.858;2022-07-30T08:21:39;2.33;;;0.90;;
34673;SDS011;20879;55.668;37.858;2022-07-30T08:24:09;3.00;;;0.98;;
34673;SDS011;20879;55.668;37.858;2022-07-30T08:26:41;2.17;;;0.63;;
34673;SDS011;20879;55.668;37.858;2022-07-30T08:29:11;3.53;;;0.82;;
34673;SDS011;20879;55.668;37.858;2022-07-30T08:31:44;1.45;;;0.90;;
34673;SDS011;20879;55.668;37.858;2022-07-30T08:34:14;1.50;;;0.80;;
34673;SDS011;20879;55.668;37.858;2022-07-30T08:36:52;4.47;;;0.85;;
34673;SDS011;20879;55.668;37.858;2022-07-30T08:39:21;1.90;;;0.88;;
34673;SDS011;20879;55.668;37.858;2022-07-30T08:41:53;4.30;;;0.95;;
34673;SDS011;20879;55.668;37.858;2022-07-30T08:44:23;1.02;;;0.95;;
34673;SDS011;20879;55.668;37.858;2022-07-30T08:46:55;2.65;;;0.90;;
34673;SDS011;20879;55.668;37.858;2022-07-30T08:49:49;1.45;;;0.85;;
34673;SDS011;20879;55.668;37.858;2022-07-30T08:52:23;1.92;;;0.70;;
34673;SDS011;20879;55.668;37.858;2022-07-30T08:55:00;2.05;;;1.00;;
34673;SDS011;20879;55.668;37.858;2022-07-30T08:57:32;1.45;;;0.73;;
34673;SDS011;20879;55.668;37.858;2022-07-30T09:00:03;2.67;;;1.70;;
34673;SDS011;20879;55.668;37.858;2022-07-30T09:02:34;3.50;;;0.95;;
34673;SDS011;20879;55.668;37.858;2022-07-30T09:05:06;2.30;;;0.90;;
34673;SDS011;20879;55.668;37.858;2022-07-30T09:07:37;3.33;;;0.80;;
34673;SDS011;20879;55.668;37.858;2022-07-30T09:10:11;1.15;;;0.68;;
34673;SDS011;20879;55.668;37.858;2022-07-30T09:12:46;5.22;;;0.93;;
34673;SDS011;20879;55.668;37.858;2022-07-30T09:15:16;1.65;;;0.90;;
34673;SDS011;20879;55.668;37.858;2022-07-30T09:17:48;3.15;;;1.00;;
34673;SDS011;20879;55.668;37.858;2022-07-30T09:20:26;1.60;;;1.05;;
34673;SDS011;20879;55.668;37.858;2022-07-30T09:22:57;7.13;;;1.23;;
34673;SDS011;20879;55.668;37.858;2022-07-30T09:26:04;3.35;;;1.15;;
34673;SDS011;20879;55.668;37.858;2022-07-30T09:28:55;5.13;;;1.45;;
34673;SDS011;20879;55.668;37.858;2022-07-30T09:32:02;1.80;;;1.17;;
34673;SDS011;20879;55.668;37.858;2022-07-30T09:35:12;2.00;;;1.25;;
34673;SDS011;20879;55.668;37.858;2022-07-30T09:38:18;1.20;;;0.90;;
34673;SDS011;20879;55.668;37.858;2022-07-30T09:40:52;2.53;;;1.10;;
34673;SDS011;20879;55.668;37.858;2022-07-30T09:43:47;2.72;;;0.93;;
34673;SDS011;20879;55.668;37.858;2022-07-30T09:46:44;4.35;;;0.98;;
34673;SDS011;20879;55.668;37.858;2022-07-30T09:49:24;2.08;;;1.30;;
34673;SDS011;20879;55.668;37.858;2022-07-30T09:51:55;1.63;;;0.98;;
34673;SDS011;20879;55.668;37.858;2022-07-30T09:54:44;1.92;;;0.80;;
34673;SDS011;20879;55.668;37.858;2022-07-30T09:57:22;2.88;;;1.00;;
34673;SDS011;20879;55.668;37.858;2022-07-30T10:00:14;1.75;;;1.35;;
34673;SDS011;20879;55.668;37.858;2022-07-30T10:03:18;3.20;;;1.15;;
34673;SDS011;20879;55.668;37.858;2022-07-30T10:06:32;2.30;;;1.20;;
34673;SDS011;20879;55.668;37.858;2022-07-30T10:09:46;2.58;;;1.15;;
34673;SDS011;20879;55.668;37.858;2022-07-30T10:12:19;3.22;;;1.65;;
34673;SDS011;20879;55.668;37.858;2022-07-30T10:14:51;3.28;;;0.90;;
34673;SDS011;20879;55.668;37.858;2022-07-30T10:17:22;1.63;;;0.98;;
34673;SDS011;20879;55.668;37.858;2022-07-30T10:20:17;2.90;;;1.20;;
34673;SDS011;20879;55.668;37.858;2022-07-30T10:23:06;2.08;;;1.00;;
34673;SDS011;20879;55.668;37.858;2022-07-30T10:26:00;2.17;;;0.80;;
34673;SDS011;20879;55.668;37.858;2022-07-30T10:28:39;2.60;;;1.00;;
34673;SDS011;20879;55.668;37.858;2022-07-30T10:31:09;5.35;;;1.30;;
34673;SDS011;20879;55.668;37.858;2022-07-30T10:33:59;3.15;;;1.23;;
34673;SDS011;20879;55.668;37.858;2022-07-30T10:36:32;3.42;;;2.28;;
34673;SDS011;20879;55.668;37.858;2022-07-30T10:39:03;2.45;;;1.40;;
34673;SDS011;20879;55.668;37.858;2022-07-30T10:41:38;3.25;;;1.20;;
34673;SDS011;20879;55.668;37.858;2022-07-30T10:44:32;0.95;;;0.90;;
34673;SDS011;20879;55.668;37.858;2022-07-30T10:47:13;1.83;;;1.10;;
34673;SDS011;20879;55.668;37.858;2022-07-30T10:52:45;1.42;;;1.10;;
34673;SDS011;20879;55.668;37.858;2022-07-30T10:55:20;4.78;;;1.20;;
34673;SDS011;20879;55.668;37.858;2022-07-30T10:58:06;3.95;;;1.80;;
34673;SDS011;20879;55.668;37.858;2022-07-30T11:03:26;2.67;;;1.33;;
34673;SDS011;20879;55.668;37.858;2022-07-30T11:06:23;4.65;;;0.80;;
34673;SDS011;20879;55.668;37.858;2022-07-30T11:08:56;1.10;;;1.00;;
34673;SDS011;20879;55.668;37.858;2022-07-30T11:20:41;1.17;;;0.82;;
34673;SDS011;20879;55.668;37.858;2022-07-30T11:26:08;1.95;;;1.00;;
34673;SDS011;20879;55.668;37.858;2022-07-30T11:28:41;2.05;;;0.93;;
34673;SDS011;20879;55.668;37.858;2022-07-30T11:31:25;1.30;;;0.77;;
34673;SDS011;20879;55.668;37.858;2022-07-30T11:34:26;5.90;;;1.10;;
34673;SDS011;20879;55.668;37.858;2022-07-30T11:40:08;1.65;;;1.10;;
34673;SDS011;20879;55.668;37.858;2022-07-30T11:42:40;3.28;;;2.88;;
34673;SDS011;20879;55.668;37.858;2022-07-30T11:45:20;2.95;;;1.13;;
34673;SDS011;20879;55.668;37.858;2022-07-30T11:47:59;1.30;;;1.20;;
34673;SDS011;20879;55.668;37.858;2022-07-30T11:50:30;3.63;;;1.20;;
34673;SDS011;20879;55.668;37.858;2022-07-30T11:53:01;1.65;;;1.15;;
34673;SDS011;20879;55.668;37.858;2022-07-30T11:55:33;4.22;;;1.30;;
34673;SDS011;20879;55.668;37.858;2022-07-30T11:58:06;1.23;;;0.98;;
34673;SDS011;20879;55.668;37.858;2022-07-30T12:00:38;1.10;;;1.00;;
34673;SDS011;20879;55.668;37.858;2022-07-30T12:03:13;1.25;;;0.95;;
34673;SDS011;20879;55.668;37.858;2022-07-30T12:05:44;2.58;;;1.20;;
34673;SDS011;20879;55.668;37.858;2022-07-30T12:08:19;4.65;;;1.30;;
34673;SDS011;20879;55.668;37.858;2022-07-30T12:11:02;1.92;;;1.17;;
34673;SDS011;20879;55.668;37.858;2022-07-30T12:13:34;2.63;;;1.30;;
34673;SDS011;20879;55.668;37.858;2022-07-30T12:16:12;3.03;;;1.25;;
34673;SDS011;20879;55.668;37.858;2022-07-30T12:21:13;2.97;;;1.23;;
34673;SDS011;20879;55.668;37.858;2022-07-30T12:23:52;4.22;;;1.02;;
34673;SDS011;20879;55.668;37.858;2022-07-30T12:26:22;3.63;;;1.08;;
34673;SDS011;20879;55.668;37.858;2022-07-30T12:28:56;3.00;;;1.20;;
34673;SDS011;20879;55.668;37.858;2022-07-30T12:31:28;0.98;;;0.95;;
34673;SDS011;20879;55.668;37.858;2022-07-30T12:34:17;4.43;;;2.00;;
34673;SDS011;20879;55.668;37.858;2022-07-30T12:36:48;1.73;;;1.35;;
34673;SDS011;20879;55.668;37.858;2022-07-30T12:39:17;1.20;;;0.80;;
34673;SDS011;20879;55.668;37.858;2022-07-30T12:41:49;1.52;;;1.10;;
34673;SDS011;20879;55.668;37.858;2022-07-30T12:44:37;1.90;;;1.00;;
34673;SDS011;20879;55.668;37.858;2022-07-30T12:47:17;2.33;;;0.95;;
34673;SDS011;20879;55.668;37.858;2022-07-30T12:49:51;3.38;;;1.30;;
34673;SDS011;20879;55.668;37.858;2022-07-30T12:57:54;2.45;;;0.70;;
34673;SDS011;20879;55.668;37.858;2022-07-30T13:00:44;2.10;;;1.05;;
34673;SDS011;20879;55.668;37.858;2022-07-30T13:03:18;3.28;;;1.00;;
34673;SDS011;20879;55.668;37.858;2022-07-30T13:05:51;2.15;;;0.90;;
34673;SDS011;20879;55.668;37.858;2022-07-30T13:11:16;1.30;;;1.10;;
34673;SDS011;20879;55.668;37.858;2022-07-30T13:13:48;1.83;;;1.33;;
34673;SDS011;20879;55.668;37.858;2022-07-30T13:16:19;1.65;;;1.45;;
34673;SDS011;20879;55.668;37.858;2022-07-30T13:18:49;4.50;;;1.70;;
34673;SDS011;20879;55.668;37.858;2022-07-30T13:21:18;2.65;;;1.60;;
34673;SDS011;20879;55.668;37.858;2022-07-30T13:23:47;1.38;;;1.10;;
34673;SDS011;20879;55.668;37.858;2022-07-30T13:26:19;2.30;;;0.90;;
34673;SDS011;20879;55.668;37.858;2022-07-30T13:28:51;1.88;;;1.20;;
34673;SDS011;20879;55.668;37.858;2022-07-30T13:31:27;3.58;;;1.48;;
34673;SDS011;20879;55.668;37.858;2022-07-30T13:34:09;3.38;;;1.40;;
34673;SDS011;20879;55.668;37.858;2022-07-30T13:36:38;2.85;;;1.38;;
34673;SDS011;20879;55.668;37.858;2022-07-30T13:39:08;2.00;;;1.20;;
34673;SDS011;20879;55.668;37.858;2022-07-30T13:41:38;2.10;;;1.27;;
34673;SDS011;20879;55.668;37.858;2022-07-30T13:44:11;4.07;;;1.13;;
34673;SDS011;20879;55.668;37.858;2022-07-30T13:46:40;1.17;;;0.80;;
34673;SDS011;20879;55.668;37.858;2022-07-30T13:49:09;3.85;;;0.93;;
34673;SDS011;20879;55.668;37.858;2022-07-30T13:51:38;3.03;;;1.73;;
34673;SDS011;20879;55.668;37.858;2022-07-30T13:54:08;3.17;;;1.40;;
34673;SDS011;20879;55.668;37.858;2022-07-30T13:56:39;1.17;;;1.08;;
34673;SDS011;20879;55.668;37.858;2022-07-30T13:59:11;2.05;;;1.23;;
34673;SDS011;20879;55.668;37.858;2022-07-30T14:01:40;5.78;;;3.00;;
34673;SDS011;20879;55.668;37.858;2022-07-30T14:04:10;1.73;;;1.00;;
34673;SDS011;20879;55.668;37.858;2022-07-30T14:06:39;1.88;;;1.20;;
34673;SDS011;20879;55.668;37.858;2022-07-30T14:09:09;1.10;;;1.00;;
34673;SDS011;20879;55.668;37.858;2022-07-30T14:11:38;0.95;;;0.93;;
34673;SDS011;20879;55.668;37.858;2022-07-30T14:14:07;2.28;;;1.20;;
34673;SDS011;20879;55.668;37.858;2022-07-30T14:16:39;1.75;;;1.10;;
34673;SDS011;20879;55.668;37.858;2022-07-30T14:19:11;1.10;;;1.00;;
34673;SDS011;20879;55.668;37.858;2022-07-30T14:21:51;1.35;;;1.00;;
34673;SDS011;20879;55.668;37.858;2022-07-30T14:24:21;1.20;;;1.05;;
34673;SDS011;20879;55.668;37.858;2022-07-30T14:26:50;2.13;;;1.15;;
34673;SDS011;20879;55.668;37.858;2022-07-30T14:29:23;2.80;;;1.02;;
34673;SDS011;20879;55.668;37.858;2022-07-30T14:31:55;4.93;;;1.48;;
34673;SDS011;20879;55.668;37.858;2022-07-30T14:34:27;2.08;;;1.00;;
34673;SDS011;20879;55.668;37.858;2022-07-30T14:36:56;2.53;;;1.10;;
34673;SDS011;20879;55.668;37.858;2022-07-30T14:39:26;1.90;;;1.10;;
34673;SDS011;20879;55.668;37.858;2022-07-30T14:41:55;2.53;;;1.35;;
34673;SDS011;20879;55.668;37.858;2022-07-30T14:44:24;3.25;;;1.55;;
34673;SDS011;20879;55.668;37.858;2022-07-30T14:46:55;2.33;;;1.20;;
34673;SDS011;20879;55.668;37.858;2022-07-30T14:49:25;2.42;;;1.00;;
34673;SDS011;20879;55.668;37.858;2022-07-30T14:51:54;4.35;;;1.50;;
34673;SDS011;20879;55.668;37.858;2022-07-30T14:54:24;5.32;;;1.55;;
34673;SDS011;20879;55.668;37.858;2022-07-30T14:56:53;4.20;;;1.50;;
34673;SDS011;20879;55.668;37.858;2022-07-30T14:59:24;2.13;;;1.20;;
34673;SDS011;20879;55.668;37.858;2022-07-30T15:04:27;2.30;;;1.30;;
34673;SDS011;20879;55.668;37.858;2022-07-30T15:06:56;4.28;;;1.73;;
34673;SDS011;20879;55.668;37.858;2022-07-30T15:09:26;3.10;;;1.80;;
34673;SDS011;20879;55.668;37.858;2022-07-30T15:11:55;3.83;;;2.60;;
34673;SDS011;20879;55.668;37.858;2022-07-30T15:14:50;3.83;;;2.35;;
34673;SDS011;20879;55.668;37.858;2022-07-30T15:17:21;3.08;;;2.00;;
34673;SDS011;20879;55.668;37.858;2022-07-30T15:19:52;2.08;;;1.42;;
34673;SDS011;20879;55.668;37.858;2022-07-30T15:22:21;1.40;;;1.27;;
34673;SDS011;20879;55.668;37.858;2022-07-30T15:24:51;1.27;;;0.80;;
34673;SDS011;20879;55.668;37.858;2022-07-30T15:27:20;2.15;;;1.60;;
34673;SDS011;20879;55.668;37.858;2022-07-30T15:29:59;4.90;;;1.30;;
34673;SDS011;20879;55.668;37.858;2022-07-30T15:32:31;2.92;;;0.90;;
34673;SDS011;20879;55.668;37.858;2022-07-30T15:37:30;3.55;;;1.20;;
34673;SDS011;20879;55.668;37.858;2022-07-30T15:39:59;4.55;;;1.90;;
34673;SDS011;20879;55.668;37.858;2022-07-30T15:42:29;1.77;;;1.00;;
34673;SDS011;20879;55.668;37.858;2022-07-30T15:44:59;1.83;;;0.93;;
34673;SDS011;20879;55.668;37.858;2022-07-30T15:47:45;3.60;;;1.35;;
34673;SDS011;20879;55.668;37.858;2022-07-30T15:50:15;2.38;;;0.90;;
34673;SDS011;20879;55.668;37.858;2022-07-30T15:52:45;2.40;;;0.82;;
34673;SDS011;20879;55.668;37.858;2022-07-30T15:55:15;1.52;;;1.00;;
34673;SDS011;20879;55.668;37.858;2022-07-30T15:57:45;4.35;;;2.63;;
34673;SDS011;20879;55.668;37.858;2022-07-30T16:00:15;4.57;;;2.42;;
34673;SDS011;20879;55.668;37.858;2022-07-30T16:02:46;5.88;;;3.70;;
34673;SDS011;20879;55.668;37.858;2022-07-30T16:05:15;5.05;;;3.65;;
34673;SDS011;20879;55.668;37.858;2022-07-30T16:07:45;9.20;;;4.15;;